Time;durP1;ratioP1;P1;durP2;ratioP2;P2;SDS_P1;SDS_P2;PMS_P1;PMS_P2;Temp;Humidity;BMP_temperature;BMP_pressure;BME280_temperature;BME280_humidity;BME280_pressure;Samples;Min_cycle;Max_cycle;Signal;HPM_P1;HPM_P2
2022/08/19 00:01:13;;;;;;;4.70;3.38;;;;;;;24.17;40.92;93639.66;4954559;28;20031;-79
2022/08/19 00:03:38;;;;;;;4.00;3.63;;;;;;;24.33;40.97;93661.63;4939551;28;20067;-80
2022/08/19 00:06:04;;;;;;;3.45;3.15;;;;;;;24.28;41.09;93653.91;4955194;28;20381;-80
2022/08/19 00:08:29;;;;;;;4.85;3.88;;;;;;;24.30;41.20;93660.47;4955194;28;20023;-80
2022/08/19 00:10:55;;;;;;;4.07;3.63;;;;;;;24.07;41.28;93637.78;4955638;28;20047;-80
2022/08/19 00:13:20;;;;;;;3.95;3.65;;;;;;;24.05;41.48;93637.41;4953145;28;20174;-80
2022/08/19 00:15:45;;;;;;;3.95;3.33;;;;;;;23.94;41.62;93642.94;4955760;28;20035;-80
2022/08/19 00:18:11;;;;;;;4.65;3.10;;;;;;;23.84;41.45;93643.81;4953886;28;20043;-80
2022/08/19 00:20:40;;;;;;;3.03;2.72;;;;;;;23.99;41.56;93672.38;4939491;28;20494;-80
2022/08/19 00:23:06;;;;;;;3.78;3.40;;;;;;;23.98;42.00;93677.03;4943777;28;20019;-80
2022/08/19 00:25:33;;;;;;;3.45;3.15;;;;;;;24.01;42.16;93676.22;4956650;28;20043;-80
2022/08/19 00:27:59;;;;;;;3.45;3.15;;;;;;;23.97;41.71;93670.06;4953595;28;20135;-80
2022/08/19 00:30:25;;;;;;;3.45;3.15;;;;;;;23.97;41.91;93677.44;4953523;28;20047;-81
2022/08/19 00:32:51;;;;;;;5.32;3.97;;;;;;;23.68;41.87;93640.81;4953639;28;20407;-80
2022/08/19 00:35:17;;;;;;;4.10;3.70;;;;;;;23.63;42.09;93636.59;4956542;28;20038;-80
2022/08/19 00:37:43;;;;;;;4.50;4.07;;;;;;;23.77;42.33;93652.78;4957666;28;20119;-81
2022/08/19 00:40:10;;;;;;;4.30;3.90;;;;;;;23.70;41.78;93655.56;4956227;28;20035;-80
2022/08/19 00:42:37;;;;;;;4.15;3.40;;;;;;;23.74;41.94;93659.00;4953340;28;20034;-80
2022/08/19 00:45:10;;;;;;;4.13;3.22;;;;;;;23.70;42.12;93644.69;4955953;28;20031;-80
2022/08/19 00:47:36;;;;;;;3.90;3.50;;;;;;;23.74;42.07;93659.00;4936969;28;20022;-80
2022/08/19 00:50:01;;;;;;;3.75;3.45;;;;;;;23.57;42.00;93632.75;4955074;28;20020;-80
2022/08/19 00:52:34;;;;;;;3.65;3.30;;;;;;;23.70;42.06;93661.00;4957841;28;20042;-81
2022/08/19 00:55:01;;;;;;;4.00;3.50;;;;;;;23.57;42.23;93643.63;4955216;28;20442;-81
2022/08/19 00:57:34;;;;;;;3.60;3.22;;;;;;;23.46;42.08;93624.69;4953397;28;20069;-80
2022/08/19 01:00:01;;;;;;;5.65;3.70;;;;;;;23.40;42.28;93623.56;4956803;28;20468;-80
2022/08/19 01:02:28;;;;;;;3.97;3.60;;;;;;;23.54;42.31;93664.19;4955897;28;20031;-81
2022/08/19 01:04:54;;;;;;;4.10;3.70;;;;;;;23.52;42.35;93654.91;4955806;28;20034;-81
2022/08/19 01:07:19;;;;;;;6.15;4.38;;;;;;;23.34;42.27;93627.09;4953643;28;20543;-80
2022/08/19 01:09:45;;;;;;;5.57;3.22;;;;;;;23.10;42.18;93591.59;4957158;28;21037;-81
2022/08/19 01:12:11;;;;;;;3.88;3.47;;;;;;;23.27;42.38;93616.31;4957324;28;20563;-81
2022/08/19 01:14:39;;;;;;;4.50;3.75;;;;;;;23.46;42.56;93649.13;4946731;28;20022;-81
2022/08/19 01:17:08;;;;;;;4.93;3.20;;;;;;;23.35;42.75;93628.63;4957671;28;20682;-81
2022/08/19 01:19:37;;;;;;;5.22;3.53;;;;;;;23.40;42.55;93647.22;4959537;28;20077;-81
2022/08/19 01:22:26;;;;;;;4.18;3.55;;;;;;;23.42;42.54;93655.72;4957666;28;20066;-80
2022/08/19 01:24:51;;;;;;;3.72;3.25;;;;;;;23.17;42.87;93626.06;4940541;28;20062;-81
2022/08/19 01:27:17;;;;;;;5.15;3.78;;;;;;;23.30;42.82;93648.06;4959185;28;20539;-81
2022/08/19 01:29:44;;;;;;;4.68;4.25;;;;;;;23.09;42.94;93625.31;4957616;28;20447;-81
2022/08/19 01:32:14;;;;;;;4.50;3.60;;;;;;;23.17;43.15;93638.84;4958846;28;20109;-80
2022/08/19 01:34:40;;;;;;;5.35;3.80;;;;;;;23.09;43.01;93648.94;4958682;28;20031;-81
2022/08/19 01:37:11;;;;;;;5.30;4.20;;;;;;;23.17;42.91;93666.75;4959175;28;20034;-81
2022/08/19 01:39:39;;;;;;;3.92;3.40;;;;;;;23.10;42.89;93661.34;4959367;28;20033;-81
2022/08/19 01:42:10;;;;;;;4.70;3.95;;;;;;;22.82;43.29;93624.28;4960922;28;20035;-81
2022/08/19 01:44:37;;;;;;;6.63;4.22;;;;;;;22.91;43.12;93649.06;4959965;28;20028;-81
2022/08/19 01:47:03;;;;;;;4.35;3.95;;;;;;;23.00;43.30;93668.38;4960005;28;20051;-79
2022/08/19 01:49:29;;;;;;;4.80;4.05;;;;;;;22.93;43.61;93654.84;4959253;28;20027;-81
2022/08/19 01:51:55;;;;;;;4.45;3.80;;;;;;;22.93;43.56;93657.53;4957406;28;20523;-80
2022/08/19 01:54:22;;;;;;;5.35;3.78;;;;;;;22.81;43.86;93657.97;4938783;28;20062;-81
2022/08/19 01:56:48;;;;;;;7.22;4.22;;;;;;;22.84;43.90;93650.97;4957459;28;20042;-81
2022/08/19 01:59:17;;;;;;;5.70;4.80;;;;;;;22.86;43.67;93644.03;4960048;28;20031;-81
2022/08/19 02:01:42;;;;;;;4.43;3.90;;;;;;;23.01;43.39;93658.31;4946960;28;20511;-81
2022/08/19 02:04:08;;;;;;;9.68;3.63;;;;;;;22.93;43.67;93645.94;4959937;28;20035;-81
2022/08/19 02:06:34;;;;;;;3.95;3.58;;;;;;;22.97;43.41;93658.31;4957332;28;22149;-80
2022/08/19 02:09:00;;;;;;;3.88;3.47;;;;;;;23.03;43.57;93661.38;4957792;28;20098;-80
2022/08/19 02:11:31;;;;;;;3.67;3.30;;;;;;;22.92;43.38;93647.13;4941893;28;20027;-81
2022/08/19 02:13:57;;;;;;;5.43;3.33;;;;;;;22.76;43.42;93628.56;4956546;28;20134;-80
2022/08/19 02:16:23;;;;;;;5.97;3.45;;;;;;;22.65;43.81;93641.38;4956709;28;20062;-80
2022/08/19 02:18:49;;;;;;;6.13;3.58;;;;;;;22.80;43.90;93661.84;4956922;28;20039;-81
2022/08/19 02:21:16;;;;;;;4.75;4.05;;;;;;;22.48;44.03;93610.50;4956446;28;20035;-80
2022/08/19 02:23:42;;;;;;;3.67;3.30;;;;;;;22.68;43.90;93649.50;4940503;28;20034;-80
2022/08/19 02:26:08;;;;;;;4.07;3.67;;;;;;;22.72;44.06;93644.06;4956351;28;20077;-80
2022/08/19 02:28:34;;;;;;;5.03;3.67;;;;;;;22.84;44.00;93659.88;4945224;28;20028;-80
2022/08/19 02:31:00;;;;;;;5.25;3.97;;;;;;;22.84;44.30;93654.47;4934365;28;20047;-79
2022/08/19 02:33:26;;;;;;;3.88;3.20;;;;;;;22.51;44.24;93617.03;4938075;28;20032;-80
2022/08/19 02:35:52;;;;;;;3.80;3.33;;;;;;;22.71;44.51;93656.06;4921301;28;20039;-81
2022/08/19 02:38:26;;;;;;;5.03;4.03;;;;;;;22.49;44.56;93636.41;4942475;28;20030;-80
2022/08/19 02:41:00;;;;;;;8.63;3.80;;;;;;;22.63;44.32;93662.69;4940289;28;20036;-80
2022/08/19 02:43:28;;;;;;;4.57;3.45;;;;;;;22.52;44.55;93653.81;4939732;28;20040;-80
2022/08/19 02:45:54;;;;;;;4.47;4.07;;;;;;;22.54;44.50;93654.19;4939597;28;20035;-80
2022/08/19 02:48:22;;;;;;;4.30;3.90;;;;;;;22.35;44.44;93632.97;4938638;28;20063;-80
2022/08/19 02:50:54;;;;;;;3.75;3.45;;;;;;;22.34;44.90;93642.28;4939365;28;20023;-80
2022/08/19 02:53:25;;;;;;;5.53;4.05;;;;;;;22.33;44.85;93646.13;4937709;28;20042;-80
2022/08/19 02:55:51;;;;;;;4.20;3.35;;;;;;;22.24;44.79;93650.00;4939854;28;20031;-80
2022/08/19 02:58:18;;;;;;;4.18;3.55;;;;;;;22.33;44.99;93673.22;4935223;28;20531;-80
2022/08/19 03:00:47;;;;;;;4.95;4.45;;;;;;;22.28;45.17;93677.88;4936202;28;20135;-81
2022/08/19 03:03:13;;;;;;;4.85;3.72;;;;;;;22.04;45.47;93646.19;4939931;28;20645;-81
2022/08/19 03:05:39;;;;;;;7.15;4.50;;;;;;;22.01;45.53;93660.47;4939174;28;20090;-79
2022/08/19 03:08:05;;;;;;;9.90;4.25;;;;;;;22.07;45.53;93661.63;4940806;28;20031;-81
2022/08/19 03:10:32;;;;;;;6.65;4.47;;;;;;;21.65;45.38;93585.91;4938720;28;20040;-81
2022/08/19 03:12:57;;;;;;;4.75;4.22;;;;;;;22.26;45.55;93674.78;4939243;28;20031;-80
2022/08/19 03:15:22;;;;;;;5.55;4.95;;;;;;;22.28;45.21;93667.06;4936863;28;20055;-80
2022/08/19 03:17:48;;;;;;;5.47;4.40;;;;;;;22.28;45.36;93656.22;4924323;29;20038;-80
2022/08/19 03:20:13;;;;;;;5.35;4.80;;;;;;;22.29;44.95;93665.88;4936742;28;20062;-80
2022/08/19 03:22:38;;;;;;;5.60;4.60;;;;;;;22.05;45.25;93636.88;4937067;28;20241;-81
2022/08/19 03:25:04;;;;;;;4.97;4.40;;;;;;;21.98;45.61;93639.59;4919199;28;20082;-80
2022/08/19 03:27:30;;;;;;;5.15;4.50;;;;;;;21.98;45.45;93647.72;4936334;28;20501;-80
2022/08/19 03:29:56;;;;;;;4.60;4.05;;;;;;;21.94;45.46;93644.25;4939822;28;20035;-80
2022/08/19 03:32:22;;;;;;;4.72;4.32;;;;;;;21.90;45.82;93651.63;4940769;28;20050;-80
2022/08/19 03:34:49;;;;;;;5.22;4.72;;;;;;;22.07;45.98;93669.75;4950097;28;20393;-80
2022/08/19 03:37:14;;;;;;;9.73;5.07;;;;;;;21.95;45.95;93653.16;4957274;28;20073;-80
2022/08/19 03:39:41;;;;;;;5.80;4.53;;;;;;;21.96;45.61;93660.88;4955851;28;20066;-80
2022/08/19 03:42:08;;;;;;;5.90;5.13;;;;;;;22.04;46.24;93673.25;4956938;28;20081;-80
2022/08/19 03:44:37;;;;;;;4.93;4.20;;;;;;;21.74;46.03;93633.06;4956314;28;20031;-80
2022/08/19 03:47:03;;;;;;;5.60;5.05;;;;;;;22.04;46.06;93677.91;4957051;28;20033;-79
2022/08/19 03:49:32;;;;;;;7.97;4.13;;;;;;;22.05;45.78;93688.31;4956923;28;20403;-79
2022/08/19 03:52:00;;;;;;;5.47;4.30;;;;;;;22.00;45.95;93683.28;4958709;28;20038;-80
2022/08/19 03:54:27;;;;;;;4.53;4.13;;;;;;;21.78;46.42;93674.44;4956381;28;20031;-81
2022/08/19 03:56:54;;;;;;;4.90;4.40;;;;;;;21.83;46.44;93684.09;4956895;28;20042;-80
2022/08/19 03:59:28;;;;;;;4.35;3.95;;;;;;;21.88;46.76;93697.25;4956622;28;20054;-80
2022/08/19 04:02:00;;;;;;;6.35;5.38;;;;;;;21.84;46.90;93696.47;4956434;28;20030;-80
2022/08/19 04:04:25;;;;;;;4.65;4.18;;;;;;;21.61;47.25;93656.25;4956935;28;20398;-80
2022/08/19 04:06:52;;;;;;;6.78;4.47;;;;;;;21.65;46.79;93661.66;4941702;28;20031;-79
2022/08/19 04:09:19;;;;;;;5.05;4.55;;;;;;;21.94;47.01;93698.41;4954345;28;20034;-80
2022/08/19 04:11:53;;;;;;;5.93;4.45;;;;;;;21.94;47.09;93701.13;4953626;28;20029;-80
2022/08/19 04:14:22;;;;;;;6.72;4.75;;;;;;;21.95;47.39;93702.63;4954525;28;20086;-80
2022/08/19 04:16:48;;;;;;;7.45;3.95;;;;;;;22.06;46.94;93703.41;4955330;28;21002;-81
2022/08/19 04:19:17;;;;;;;6.43;4.32;;;;;;;22.03;46.40;93693.38;4954305;28;20035;-80
2022/08/19 04:21:48;;;;;;;5.90;4.65;;;;;;;22.10;46.71;93700.69;4956327;28;20522;-80
2022/08/19 04:24:14;;;;;;;8.82;4.88;;;;;;;22.02;46.67;93686.41;4955115;28;20043;-80
2022/08/19 04:26:40;;;;;;;5.88;4.18;;;;;;;22.14;47.21;93704.97;4955748;28;20023;-80
2022/08/19 04:29:15;;;;;;;5.45;3.83;;;;;;;22.23;46.80;93713.50;4957057;28;20027;-80
2022/08/19 04:31:43;;;;;;;4.80;4.00;;;;;;;22.36;46.57;93711.16;4953733;28;20050;-79
2022/08/19 04:34:11;;;;;;;5.30;3.50;;;;;;;22.42;46.93;93706.09;4957579;28;20031;-80
2022/08/19 04:36:38;;;;;;;4.32;3.92;;;;;;;22.37;47.03;93691.03;4954904;28;20039;-80
2022/08/19 04:39:08;;;;;;;6.55;4.35;;;;;;;22.52;47.22;93705.31;4943922;28;20399;-80
2022/08/19 04:44:18;;;;;;;4.80;4.13;;;;;;;22.56;47.21;93671.63;4956342;28;20063;-80
2022/08/19 04:46:45;;;;;;;5.07;4.57;;;;;;;22.79;47.17;93695.53;4957119;28;20035;-80
2022/08/19 04:49:11;;;;;;;5.05;4.55;;;;;;;22.64;47.33;93656.88;4961016;28;20054;-81
2022/08/19 04:51:39;;;;;;;6.22;5.22;;;;;;;22.96;47.24;93700.16;4957295;28;20236;-80
2022/08/19 04:54:05;;;;;;;8.93;4.80;;;;;;;22.97;45.97;93696.28;4958694;28;20039;-80
2022/08/19 04:56:30;;;;;;;7.25;5.55;;;;;;;22.93;45.81;93695.50;4955770;28;20458;-80
2022/08/19 04:58:56;;;;;;;8.68;5.38;;;;;;;23.11;45.45;93709.00;4957980;28;20042;-80
2022/08/19 05:01:31;;;;;;;8.30;6.03;;;;;;;23.06;45.59;93704.78;4952715;28;20423;-80
2022/08/19 05:03:58;;;;;;;10.95;6.88;;;;;;;22.97;45.49;93701.72;4953865;28;20035;-80
2022/08/19 05:06:25;;;;;;;7.05;6.10;;;;;;;23.00;45.38;93695.50;4940796;28;20055;-79
2022/08/19 05:08:51;;;;;;;9.43;5.65;;;;;;;23.15;45.91;93713.25;4957699;28;20030;-80
2022/08/19 05:11:20;;;;;;;6.72;4.95;;;;;;;23.22;45.42;93722.53;4958601;28;20609;-80
2022/08/19 05:13:46;;;;;;;10.18;6.03;;;;;;;23.18;44.40;93711.66;4959438;28;20043;-81
2022/08/19 05:16:13;;;;;;;6.57;4.65;;;;;;;22.95;42.88;93708.69;4958928;28;20138;-80
2022/08/19 05:24:14;;;;;;;5.75;5.13;;;;;;;23.34;43.30;93692.22;4975000;28;20213;-80
2022/08/19 05:26:46;;;;;;;7.03;4.45;;;;;;;23.44;41.47;93713.88;4975947;28;20022;-80
2022/08/19 05:29:12;;;;;;;7.50;5.50;;;;;;;23.31;41.87;93684.88;4959438;28;20022;-80
2022/08/19 05:31:38;;;;;;;5.75;4.72;;;;;;;23.64;42.15;93716.09;4966351;28;20495;-79
2022/08/19 05:34:05;;;;;;;10.48;6.00;;;;;;;23.45;42.09;93676.66;4939904;28;20053;-80
2022/08/19 05:36:43;;;;;;;6.78;4.85;;;;;;;23.82;42.68;93714.81;4933617;28;20311;-80
2022/08/19 05:39:15;;;;;;;6.80;5.28;;;;;;;23.83;43.10;93716.34;4966097;28;20112;-81
2022/08/19 05:41:50;;;;;;;6.53;4.38;;;;;;;22.27;42.53;93492.13;4958383;28;20399;-81
2022/08/19 05:44:17;;;;;;;6.40;5.30;;;;;;;23.74;42.18;93721.47;4973613;28;20393;-81
2022/08/19 05:46:46;;;;;;;6.28;5.68;;;;;;;22.72;41.97;93577.06;4944593;28;20268;-81
2022/08/19 05:49:13;;;;;;;7.72;4.93;;;;;;;21.79;42.48;93440.50;4966042;28;20811;-81
2022/08/19 05:51:39;;;;;;;6.97;5.93;;;;;;;23.05;42.30;93632.69;4967679;28;20850;-80
2022/08/19 05:54:08;;;;;;;7.15;5.25;;;;;;;22.89;42.35;93583.59;4949638;28;20055;-77
2022/08/19 05:56:38;;;;;;;5.68;4.90;;;;;;;22.95;42.36;93583.94;4970167;28;20142;-79
2022/08/19 05:59:08;;;;;;;7.00;5.65;;;;;;;22.62;42.69;93501.25;4974605;28;20307;-79
2022/08/19 06:01:34;;;;;;;8.70;5.93;;;;;;;23.87;42.67;93659.28;4974949;28;20093;-80
2022/08/19 06:04:00;;;;;;;6.85;5.55;;;;;;;24.33;42.80;93724.91;4973959;28;20164;-79
2022/08/19 06:06:25;;;;;;;9.85;5.63;;;;;;;24.22;41.73;93691.59;4978051;28;20046;-79
2022/08/19 06:08:51;;;;;;;6.18;5.57;;;;;;;24.33;41.76;93718.69;4974111;28;20055;-80
2022/08/19 06:11:21;;;;;;;10.38;5.43;;;;;;;24.25;42.21;93725.34;4975833;28;20034;-80
2022/08/19 06:13:50;;;;;;;7.30;5.13;;;;;;;24.47;41.98;93723.22;4960341;28;20179;-79
2022/08/19 06:16:23;;;;;;;7.65;5.60;;;;;;;24.60;42.01;93722.28;4974094;28;20053;-79
2022/08/19 06:18:54;;;;;;;6.93;6.00;;;;;;;24.34;42.17;93668.59;4974963;28;20035;-80
2022/08/19 06:21:22;;;;;;;9.52;5.93;;;;;;;24.82;42.07;93723.66;4956218;28;20053;-79
2022/08/19 06:23:48;;;;;;;8.95;5.95;;;;;;;24.70;41.63;93717.91;4973475;28;20023;-80
2022/08/19 06:26:15;;;;;;;8.10;5.53;;;;;;;24.77;42.64;93726.03;4964856;28;20703;-80
2022/08/19 06:28:44;;;;;;;8.88;6.50;;;;;;;24.87;42.61;93722.44;4965764;28;20133;-80
2022/08/19 06:31:10;;;;;;;12.40;6.65;;;;;;;25.07;42.35;93733.47;4962767;28;20065;-80
2022/08/19 06:33:37;;;;;;;13.75;6.90;;;;;;;24.95;42.03;93691.25;4951556;28;20098;-80
2022/08/19 06:36:03;;;;;;;7.93;6.13;;;;;;;25.28;42.04;93733.97;4932800;28;20863;-78
2022/08/19 06:38:28;;;;;;;6.65;5.85;;;;;;;25.00;41.50;93701.69;4949250;28;20039;-80
2022/08/19 06:41:02;;;;;;;11.60;7.35;;;;;;;25.26;41.55;93713.78;4950502;28;20038;-80
2022/08/19 06:43:28;;;;;;;8.88;6.10;;;;;;;24.93;41.13;93699.03;4928224;28;20042;-81
2022/08/19 06:45:53;;;;;;;6.88;5.82;;;;;;;25.23;42.32;93728.22;4950119;28;20616;-79
2022/08/19 06:48:19;;;;;;;7.35;5.90;;;;;;;25.19;41.90;93703.00;4946617;28;20043;-81
2022/08/19 06:50:44;;;;;;;8.32;5.53;;;;;;;25.20;41.64;93680.03;4948358;28;20703;-81
2022/08/19 06:53:10;;;;;;;10.27;6.60;;;;;;;25.47;40.76;93729.84;4946100;28;20035;-81
2022/08/19 06:55:36;;;;;;;8.77;6.40;;;;;;;25.61;41.74;93729.69;4931421;28;20856;-78
2022/08/19 06:58:04;;;;;;;7.97;5.53;;;;;;;25.49;40.79;93700.28;4950097;28;20584;-80
2022/08/19 07:00:32;;;;;;;7.88;5.25;;;;;;;25.82;40.47;93731.31;4953010;28;20097;-81
2022/08/19 07:02:58;;;;;;;6.00;5.07;;;;;;;25.57;39.30;93684.59;4953605;28;21179;-80
2022/08/19 07:05:24;;;;;;;7.30;4.97;;;;;;;25.63;40.34;93705.53;4952342;28;20496;-82
2022/08/19 07:07:49;;;;;;;9.10;5.97;;;;;;;25.83;40.30;93708.34;4953504;28;20340;-80
2022/08/19 07:10:18;;;;;;;9.13;5.25;;;;;;;25.88;40.11;93734.34;4948544;28;20093;-81
2022/08/19 07:12:44;;;;;;;9.77;6.10;;;;;;;25.64;40.23;93688.00;4937157;28;20069;-80
2022/08/19 07:15:10;;;;;;;10.23;6.53;;;;;;;26.06;39.95;93726.69;4936205;28;20558;-81
2022/08/19 07:17:39;;;;;;;6.97;6.07;;;;;;;26.17;39.35;93731.97;4936750;28;20038;-80
2022/08/19 07:20:06;;;;;;;5.68;4.95;;;;;;;26.02;40.55;93701.47;4933688;28;20453;-80
2022/08/19 07:22:33;;;;;;;6.55;5.28;;;;;;;26.31;39.71;93737.97;4953396;28;20211;-79
2022/08/19 07:24:59;;;;;;;10.60;5.50;;;;;;;26.37;39.19;93743.72;4953872;28;20039;-79
2022/08/19 07:27:25;;;;;;;12.05;5.93;;;;;;;25.53;39.35;93728.22;4950116;28;20046;-79
2022/08/19 07:29:52;;;;;;;8.57;5.53;;;;;;;25.87;40.25;93740.97;4933714;28;20447;-78
2022/08/19 07:32:17;;;;;;;9.73;5.40;;;;;;;25.87;39.90;93740.97;4947708;28;20058;-78
2022/08/19 07:34:43;;;;;;;6.90;5.97;;;;;;;25.91;39.77;93714.50;4950527;28;20043;-79
2022/08/19 07:37:09;;;;;;;6.00;5.40;;;;;;;25.98;40.58;93704.25;4947353;28;20051;-79
2022/08/19 07:39:37;;;;;;;6.72;5.05;;;;;;;26.13;39.29;93721.13;4926419;28;20043;-78
2022/08/19 07:42:07;;;;;;;8.38;6.18;;;;;;;25.98;38.77;93725.28;4931322;28;20074;-78
2022/08/19 07:44:33;;;;;;;5.95;4.97;;;;;;;26.22;39.33;93717.88;4959330;28;20038;-78
2022/08/19 07:46:59;;;;;;;7.00;5.20;;;;;;;26.31;40.09;93720.84;4933310;28;20023;-80
2022/08/19 07:49:25;;;;;;;8.52;5.38;;;;;;;26.30;39.55;93702.97;4948806;28;20050;-80
2022/08/19 07:51:58;;;;;;;6.28;5.10;;;;;;;26.43;39.32;93721.03;4945486;28;20154;-79
2022/08/19 07:54:26;;;;;;;8.70;5.75;;;;;;;26.59;38.63;93736.75;4931641;28;20578;-79
2022/08/19 07:56:52;;;;;;;8.35;5.25;;;;;;;26.31;39.09;93688.13;4948021;28;20047;-79
2022/08/19 07:59:20;;;;;;;9.88;4.97;;;;;;;26.69;38.62;93713.94;4948056;28;20055;-82
2022/08/19 08:01:47;;;;;;;9.77;5.57;;;;;;;26.38;38.54;93705.13;4949917;28;20052;-79
2022/08/19 08:09:43;;;;;;;7.75;5.40;;;;;;;26.28;38.79;93727.91;4951071;28;20048;-80
2022/08/19 08:12:18;;;;;;;6.43;5.10;;;;;;;26.49;38.97;93718.63;4949026;28;20061;-79
2022/08/19 08:14:48;;;;;;;8.23;5.38;;;;;;;26.61;39.35;93733.59;4948849;28;20031;-80
2022/08/19 08:17:16;;;;;;;8.73;5.05;;;;;;;26.75;39.17;93733.34;4949753;28;20036;-79
2022/08/19 08:19:42;;;;;;;5.60;4.10;;;;;;;26.85;38.21;93716.75;4950004;28;20089;-81
2022/08/19 08:23:21;;;;;;;7.45;5.20;;;;;;;26.98;37.73;93716.94;4947940;28;20142;-81
2022/08/19 08:24:57;;;;;;;5.03;4.13;;;;;;;26.82;37.61;93690.31;4949638;28;20053;-80
2022/08/19 08:27:23;;;;;;;21.75;5.40;;;;;;;27.20;36.87;93720.78;4948729;28;20312;-80
2022/08/19 08:29:49;;;;;;;5.72;3.75;;;;;;;27.15;37.23;93710.34;4947411;28;20085;-80
2022/08/19 08:32:14;;;;;;;7.10;4.55;;;;;;;26.86;35.94;93687.53;4949124;28;20109;-81
2022/08/19 08:34:40;;;;;;;7.10;4.05;;;;;;;26.83;34.87;93721.13;4948725;28;20043;-79
2022/08/19 08:37:05;;;;;;;6.68;3.97;;;;;;;26.73;35.74;93716.63;4949417;28;20423;-80
2022/08/19 08:39:31;;;;;;;5.28;3.58;;;;;;;26.85;34.66;93700.41;4947593;28;20801;-80
2022/08/19 08:42:08;;;;;;;12.60;4.45;;;;;;;26.85;34.62;93688.72;4947529;28;20049;-80
2022/08/19 08:44:36;;;;;;;3.30;2.97;;;;;;;26.91;34.04;93719.78;4948915;28;20031;-80
2022/08/19 08:47:10;;;;;;;3.90;3.15;;;;;;;27.08;34.91;93713.25;4945707;28;20053;-80
2022/08/19 08:49:56;;;;;;;3.50;3.20;;;;;;;26.99;34.44;93711.03;4949982;28;20043;-80
2022/08/19 08:52:25;;;;;;;3.90;3.45;;;;;;;26.94;34.49;93680.72;4949741;28;20102;-81
2022/08/19 08:54:54;;;;;;;3.08;2.78;;;;;;;27.32;33.01;93706.50;4945227;28;20070;-80
2022/08/19 08:57:36;;;;;;;5.72;3.92;;;;;;;27.23;33.68;93708.25;4950879;28;20075;-81
2022/08/19 09:00:08;;;;;;;5.20;3.83;;;;;;;27.28;34.93;93702.28;4950807;28;20522;-80
2022/08/19 09:02:33;;;;;;;7.18;4.45;;;;;;;27.50;33.09;93702.59;4948539;28;20117;-81
2022/08/19 09:04:59;;;;;;;5.22;3.95;;;;;;;27.52;33.99;93692.78;4949813;28;20563;-81
2022/08/19 09:07:26;;;;;;;3.88;3.40;;;;;;;27.48;33.95;93704.97;4933543;28;20480;-82
2022/08/19 09:09:56;;;;;;;4.63;3.22;;;;;;;27.23;30.68;93659.09;4944515;28;20039;-82
2022/08/19 09:12:45;;;;;;;3.95;2.70;;;;;;;27.07;32.32;93657.13;4948280;28;20031;-81
2022/08/19 09:15:14;;;;;;;3.15;2.50;;;;;;;27.42;31.55;93685.63;4949423;28;20038;-82
2022/08/19 09:17:39;;;;;;;3.00;2.33;;;;;;;27.67;31.97;93691.31;4948894;28;20058;-80
2022/08/19 09:20:22;;;;;;;4.57;3.03;;;;;;;27.76;32.92;93691.50;4933785;28;20487;-81
2022/08/19 09:22:49;;;;;;;3.35;3.05;;;;;;;27.67;32.16;93650.31;4950382;28;20035;-82
2022/08/19 09:25:17;;;;;;;3.00;2.70;;;;;;;27.68;30.18;93662.81;4937126;28;20105;-83
2022/08/19 09:27:43;;;;;;;3.17;2.80;;;;;;;27.77;31.40;93697.72;4951241;28;20035;-81
2022/08/19 09:30:22;;;;;;;3.65;3.20;;;;;;;27.35;30.88;93666.66;4935723;28;20042;-82
2022/08/19 09:32:48;;;;;;;3.20;2.58;;;;;;;27.29;30.41;93646.50;4956599;28;20027;-81
2022/08/19 09:35:14;;;;;;;5.15;3.22;;;;;;;27.46;31.34;93660.97;4952492;28;20043;-81
2022/08/19 09:37:41;;;;;;;3.20;2.50;;;;;;;27.80;31.77;93683.22;4953498;28;20047;-82
2022/08/19 09:40:07;;;;;;;5.20;2.53;;;;;;;27.70;30.95;93637.78;4950971;28;20701;-82
2022/08/19 09:42:33;;;;;;;3.45;2.53;;;;;;;28.04;30.59;93673.66;4952792;28;20039;-81
2022/08/19 09:44:59;;;;;;;3.08;2.78;;;;;;;28.21;30.09;93677.16;4952653;28;20042;-82
2022/08/19 09:47:25;;;;;;;6.88;2.65;;;;;;;28.15;31.21;93657.81;4953511;28;20570;-81
2022/08/19 09:49:50;;;;;;;6.68;2.67;;;;;;;28.12;32.78;93664.09;4953460;28;20117;-82
2022/08/19 09:52:17;;;;;;;3.42;2.65;;;;;;;28.24;29.76;93679.06;4953537;28;20039;-83
2022/08/19 09:54:42;;;;;;;3.17;2.63;;;;;;;27.55;30.34;93626.41;4958215;28;20285;-82
2022/08/19 09:57:08;;;;;;;5.05;3.22;;;;;;;27.76;29.84;93674.34;4953956;28;20530;-80
2022/08/19 09:59:34;;;;;;;3.67;2.75;;;;;;;27.89;30.71;93671.69;4952745;28;20035;-80
2022/08/19 10:01:59;;;;;;;2.88;2.40;;;;;;;27.87;29.40;93650.25;4956401;28;20059;-80
2022/08/19 10:05:47;;;;;;;3.20;2.55;;;;;;;27.65;29.67;93617.22;4951207;28;20066;-80
2022/08/19 10:07:10;;;;;;;3.58;2.90;;;;;;;28.21;29.02;93655.28;4953609;28;20047;-80
2022/08/19 10:09:36;;;;;;;4.55;3.10;;;;;;;28.27;30.42;93650.06;4952726;28;20050;-80
2022/08/19 10:12:04;;;;;;;3.50;2.92;;;;;;;28.23;30.19;93631.81;4953463;28;20467;-80
2022/08/19 10:14:30;;;;;;;2.72;2.53;;;;;;;28.29;29.28;93639.50;4957661;28;20031;-81
2022/08/19 10:16:57;;;;;;;7.22;3.00;;;;;;;28.47;30.10;93656.97;4953092;28;20774;-81
2022/08/19 10:19:23;;;;;;;6.55;2.40;;;;;;;28.38;29.27;93647.84;4955779;28;20042;-82
2022/08/19 10:21:48;;;;;;;3.25;2.75;;;;;;;28.08;28.74;93619.66;4954539;28;20058;-81
2022/08/19 10:24:13;;;;;;;3.45;2.97;;;;;;;28.13;29.50;93645.75;4950285;28;20507;-84
2022/08/19 10:26:46;;;;;;;3.65;3.10;;;;;;;28.11;30.30;93646.16;4952494;28;20030;-80
2022/08/19 10:29:11;;;;;;;3.70;3.30;;;;;;;28.04;29.41;93640.84;4957467;28;20029;-82
2022/08/19 10:31:38;;;;;;;5.38;3.35;;;;;;;27.91;29.30;93614.66;4957246;28;20046;-79
2022/08/19 10:34:04;;;;;;;5.50;3.22;;;;;;;28.10;29.33;93643.84;4975992;28;20092;-80
2022/08/19 10:36:32;;;;;;;6.32;3.90;;;;;;;28.03;28.82;93633.84;4975588;28;20046;-81
2022/08/19 10:39:00;;;;;;;4.05;2.88;;;;;;;28.16;28.67;93634.72;4958722;28;20510;-81
2022/08/19 10:41:28;;;;;;;3.45;3.00;;;;;;;28.14;28.14;93619.94;4972203;28;20033;-80
2022/08/19 10:43:57;;;;;;;3.63;3.20;;;;;;;28.23;29.35;93620.09;4972281;28;20035;-80
2022/08/19 10:46:24;;;;;;;4.13;3.55;;;;;;;28.39;27.30;93632.97;4956127;28;20356;-82
2022/08/19 10:48:51;;;;;;;3.72;3.08;;;;;;;28.25;27.37;93602.06;4955141;28;20665;-80
2022/08/19 10:54:02;;;;;;;4.78;3.72;;;;;;;28.21;27.73;93623.25;4972612;28;20053;-81
2022/08/19 10:59:16;;;;;;;4.50;3.38;;;;;;;28.40;29.06;93618.09;4968540;28;20058;-80
2022/08/19 11:01:45;;;;;;;3.25;2.95;;;;;;;28.60;28.71;93629.66;4969502;28;20042;-80
2022/08/19 11:04:13;;;;;;;4.68;3.35;;;;;;;28.75;28.54;93630.81;4962461;28;20531;-81
2022/08/19 11:06:43;;;;;;;3.40;3.10;;;;;;;28.89;28.85;93619.47;4953362;28;20229;-80
2022/08/19 11:09:10;;;;;;;5.47;3.45;;;;;;;28.67;28.17;93627.53;4974387;28;20034;-81
2022/08/19 11:11:39;;;;;;;4.05;3.33;;;;;;;28.50;28.32;93623.25;4961075;28;20049;-81
2022/08/19 11:14:10;;;;;;;3.63;3.17;;;;;;;28.66;27.87;93630.69;4965077;28;20031;-79
2022/08/19 11:16:38;;;;;;;5.68;3.30;;;;;;;28.67;28.53;93593.94;4966894;28;20042;-78
2022/08/19 11:19:04;;;;;;;3.80;3.13;;;;;;;29.07;27.21;93633.44;4969330;28;20034;-81
2022/08/19 11:21:32;;;;;;;3.88;3.03;;;;;;;29.16;27.46;93618.34;4960591;28;20398;-81
2022/08/19 11:24:01;;;;;;;4.18;3.75;;;;;;;29.20;27.35;93602.56;4968969;28;20043;-80
2022/08/19 11:26:29;;;;;;;3.83;2.67;;;;;;;29.05;28.16;93559.19;4970324;28;20030;-79
2022/08/19 11:28:55;;;;;;;3.90;3.30;;;;;;;29.45;27.76;93610.81;4972869;28;20049;-80
2022/08/19 11:31:24;;;;;;;3.85;3.10;;;;;;;29.60;27.30;93614.63;4962615;28;20566;-80
2022/08/19 11:33:51;;;;;;;4.63;3.55;;;;;;;29.68;27.27;93607.75;4942898;28;20043;-81
2022/08/19 11:36:17;;;;;;;4.55;2.78;;;;;;;29.76;26.79;93595.38;4950098;28;20319;-82
2022/08/19 11:38:44;;;;;;;4.80;3.03;;;;;;;29.84;26.86;93595.91;4955165;28;20027;-82
2022/08/19 11:41:09;;;;;;;3.70;3.35;;;;;;;29.89;27.25;93598.84;4954626;28;20031;-81
2022/08/19 11:43:36;;;;;;;4.03;3.10;;;;;;;29.96;26.33;93597.09;4937794;28;20612;-82
2022/08/19 11:46:07;;;;;;;4.40;3.60;;;;;;;29.73;27.20;93574.31;4950516;28;20120;-81
2022/08/19 11:48:32;;;;;;;3.92;3.10;;;;;;;29.91;26.78;93593.69;4938912;28;20031;-80
2022/08/19 11:50:58;;;;;;;3.80;3.13;;;;;;;29.35;26.85;93533.25;4947360;28;20547;-80
2022/08/19 11:53:24;;;;;;;4.13;3.58;;;;;;;29.71;27.00;93584.97;4948030;28;20030;-81
2022/08/19 11:55:55;;;;;;;4.75;3.10;;;;;;;29.83;27.85;93589.63;4937436;28;20043;-81